Gandys Beach, New Jersey
Current Conditions -  °F | °C
As of 11:47 PM on Wednesday 22 Oct 2014 (Local Time) from KMIV Reporting Station
Light Rain Light Rain  
Wind Chill: 52°   Ceiling: 3500
Heat Index: 52°   Visibility: 10mi
Dew Point: 49°   Wind: 15mph
Humidity: 89%   Direction: 320°NW
Pressure: 29.77"   Gusts: 22mph
Location:  39.2857°N, 75.1626°W
Report Text: KMIV 230347Z AUTO 32013G19KT 10SM -RA SCT014 BKN035 OVC042 11/09 A2977 RMK AO2 T01110094 PNO $
Loading
Personal Weather Stations






























Interactive Weather Map
Tropical Storm Tracking
New forecast layout! Learn more

10-Day Weather Forecast

Advertisements
Track Severe Weather on mobile